createdAt,value
2019-05-07T00:02:02.773Z,28.93
2019-05-07T00:04:33.172Z,30.67
2019-05-07T00:07:02.802Z,31.10
2019-05-07T00:09:32.441Z,34.03
2019-05-07T00:12:02.748Z,32.70
2019-05-07T00:14:34.596Z,33.93
2019-05-07T00:17:04.567Z,30.50
2019-05-07T00:19:34.262Z,34.20
2019-05-07T00:22:03.753Z,28.00
2019-05-07T00:24:33.330Z,34.03
2019-05-07T00:27:03.020Z,31.13
2019-05-07T00:29:33.206Z,30.47
2019-05-07T00:32:03.051Z,31.57
2019-05-07T00:34:38.996Z,30.37
2019-05-07T00:37:17.486Z,30.53
2019-05-07T00:40:03.838Z,28.77
2019-05-07T00:42:53.001Z,30.10
2019-05-07T00:45:32.673Z,28.67
2019-05-07T00:48:02.917Z,28.83
2019-05-07T00:50:34.316Z,27.63
2019-05-07T00:53:03.802Z,29.20
2019-05-07T00:55:33.306Z,28.07
2019-05-07T00:58:02.814Z,26.80
2019-05-07T01:00:33.224Z,23.50
2019-05-07T01:03:03.168Z,23.73
2019-05-07T01:05:33.095Z,25.87
2019-05-07T01:08:02.764Z,25.80
2019-05-07T01:10:33.036Z,28.47
2019-05-07T01:13:02.826Z,26.13
2019-05-07T01:15:34.730Z,25.83
2019-05-07T01:18:04.152Z,23.80
2019-05-07T01:20:33.647Z,22.30
2019-05-07T01:23:03.194Z,26.07
2019-05-07T01:25:33.070Z,26.33
2019-05-07T01:28:02.994Z,25.23
2019-05-07T01:30:32.699Z,25.90
2019-05-07T01:33:08.362Z,25.00
2019-05-07T01:35:55.515Z,24.90
2019-05-07T01:38:25.057Z,27.40
2019-05-07T01:40:54.575Z,25.97
2019-05-07T01:43:24.083Z,32.47
2019-05-07T01:45:53.571Z,28.30
2019-05-07T01:48:23.183Z,31.57
2019-05-07T01:50:53.083Z,28.33
2019-05-07T01:53:22.887Z,31.03
2019-05-07T01:55:52.503Z,31.37
2019-05-07T01:58:22.288Z,28.00
2019-05-07T02:00:53.218Z,31.80
2019-05-07T02:03:44.893Z,36.50
2019-05-07T02:06:28.545Z,25.30
2019-05-07T02:09:16.962Z,25.00
2019-05-07T02:11:47.718Z,23.97
2019-05-07T02:14:17.226Z,30.40
2019-05-07T02:16:46.747Z,26.43
2019-05-07T02:19:16.593Z,27.10
2019-05-07T02:21:46.115Z,26.00
2019-05-07T02:24:15.602Z,26.80
2019-05-07T02:26:45.810Z,28.40
2019-05-07T02:29:15.318Z,26.57
2019-05-07T02:31:44.815Z,30.47
2019-05-07T02:34:14.346Z,25.97
2019-05-07T02:36:43.830Z,22.87
2019-05-07T02:39:20.067Z,27.23
2019-05-07T02:41:49.556Z,27.43
2019-05-07T02:44:19.090Z,27.43
2019-05-07T02:47:12.953Z,31.17
2019-05-07T02:49:48.935Z,26.83
2019-05-07T02:52:27.498Z,33.03
2019-05-07T02:55:05.654Z,31.70
2019-05-07T02:57:35.175Z,28.77
2019-05-07T03:00:05.750Z,26.07
2019-05-07T03:02:35.787Z,26.10
2019-05-07T03:05:05.661Z,24.30
2019-05-07T03:07:35.238Z,24.70
2019-05-07T03:10:04.908Z,23.93
2019-05-07T03:12:34.435Z,22.20
2019-05-07T03:15:04.821Z,24.20
2019-05-07T03:17:34.892Z,26.50
2019-05-07T03:20:06.999Z,25.30
2019-05-07T03:22:36.937Z,30.40
2019-05-07T03:25:13.534Z,28.90
2019-05-07T03:27:43.328Z,27.40
2019-05-07T03:30:29.015Z,27.17
2019-05-07T03:33:16.385Z,24.83
2019-05-07T03:35:55.599Z,27.50
2019-05-07T03:38:22.874Z,24.87
2019-05-07T03:40:53.313Z,28.40
2019-05-07T03:43:24.660Z,29.03
2019-05-07T03:46:14.638Z,27.57
2019-05-07T03:48:45.929Z,30.07
2019-05-07T03:51:16.000Z,30.47
2019-05-07T03:53:45.536Z,27.83
2019-05-07T03:56:15.187Z,27.03
2019-05-07T03:58:44.859Z,29.50
2019-05-07T04:01:14.957Z,30.10
2019-05-07T04:03:45.088Z,29.07
2019-05-07T04:06:14.814Z,29.37
2019-05-07T04:08:44.463Z,24.47
2019-05-07T04:11:14.246Z,29.57
2019-05-07T04:13:44.473Z,28.87
2019-05-07T04:16:14.162Z,28.17
2019-05-07T04:18:44.166Z,26.93
2019-05-07T04:21:14.225Z,31.50
2019-05-07T04:23:44.212Z,28.63
2019-05-07T04:26:23.225Z,24.47
2019-05-07T04:29:04.790Z,26.63
2019-05-07T04:31:36.538Z,25.47
2019-05-07T04:34:13.448Z,26.93
2019-05-07T04:36:48.190Z,29.20
2019-05-07T04:39:18.001Z,25.80
2019-05-07T04:41:47.599Z,22.63
2019-05-07T04:44:17.130Z,25.00
2019-05-07T04:46:48.120Z,21.67
2019-05-07T04:49:17.931Z,24.20
2019-05-07T04:52:04.447Z,22.87
2019-05-07T04:54:33.919Z,21.10
2019-05-07T04:57:03.752Z,23.33
2019-05-07T04:59:33.533Z,23.40
2019-05-07T05:02:17.080Z,20.47
2019-05-07T05:04:46.570Z,20.77
2019-05-07T05:07:16.098Z,19.60
2019-05-07T05:09:45.640Z,21.50
2019-05-07T05:12:19.344Z,21.40
2019-05-07T05:14:48.903Z,25.93
2019-05-07T05:17:18.465Z,24.63
2019-05-07T05:19:47.958Z,21.77
2019-05-07T05:22:38.187Z,27.07
2019-05-07T05:25:25.580Z,24.50
2019-05-07T05:27:55.070Z,22.23
2019-05-07T05:30:34.526Z,23.63
2019-05-07T05:33:04.465Z,26.47
2019-05-07T05:35:34.054Z,23.83
2019-05-07T05:38:03.548Z,20.63
2019-05-07T05:40:33.058Z,20.97
2019-05-07T05:43:09.111Z,20.40
2019-05-07T05:45:42.464Z,19.47
2019-05-07T05:48:13.563Z,16.53
2019-05-07T05:51:07.598Z,19.00
2019-05-07T05:53:48.026Z,15.87
2019-05-07T05:56:23.746Z,19.10
2019-05-07T05:59:24.073Z,18.13
2019-05-07T06:02:13.762Z,18.53
2019-05-07T06:04:55.049Z,16.33
2019-05-07T06:07:45.382Z,18.50
2019-05-07T06:10:27.440Z,14.07
2019-05-07T06:13:09.697Z,13.43
2019-05-07T06:15:55.551Z,13.40
2019-05-07T06:18:48.286Z,12.70
2019-05-07T06:21:24.650Z,13.47
2019-05-07T06:23:57.058Z,12.20
2019-05-07T06:26:26.550Z,13.43
2019-05-07T06:28:56.063Z,15.03
2019-05-07T06:31:25.569Z,17.20
2019-05-07T06:33:55.079Z,14.23
2019-05-07T06:36:24.562Z,12.07
2019-05-07T06:39:14.033Z,18.40
2019-05-07T06:42:02.104Z,10.43
2019-05-07T06:44:32.076Z,10.40
2019-05-07T06:47:02.477Z,12.07
2019-05-07T06:49:32.616Z,12.00
2019-05-07T06:52:02.981Z,11.53
2019-05-07T06:54:32.591Z,11.80
2019-05-07T06:57:02.118Z,11.93
2019-05-07T06:59:48.842Z,10.30
2019-05-07T07:02:46.819Z,10.47
2019-05-07T07:05:35.462Z,10.40
2019-05-07T07:08:12.471Z,16.87
2019-05-07T07:11:18.983Z,9.57
2019-05-07T07:13:48.475Z,13.73
2019-05-07T07:16:18.019Z,8.70
2019-05-07T07:18:52.119Z,10.70
2019-05-07T07:21:18.983Z,8.33
2019-05-07T07:23:48.479Z,8.83
2019-05-07T07:26:17.975Z,10.27
2019-05-07T07:28:47.484Z,7.03
2019-05-07T07:31:35.911Z,7.93
2019-05-07T07:34:06.415Z,9.37
2019-05-07T07:36:42.420Z,7.53
2019-05-07T07:39:12.729Z,9.50
2019-05-07T07:41:45.839Z,14.70
2019-05-07T07:44:15.333Z,6.83
2019-05-07T07:46:44.842Z,9.63
2019-05-07T07:49:15.260Z,11.13
2019-05-07T07:51:45.779Z,8.43
2019-05-07T07:54:15.508Z,24.10
2019-05-07T07:57:06.935Z,6.90
2019-05-07T07:59:58.399Z,9.63
2019-05-07T08:02:56.075Z,9.20
2019-05-07T08:05:25.587Z,11.47
2019-05-07T08:07:55.074Z,12.30
2019-05-07T08:10:24.592Z,9.70
2019-05-07T08:12:54.074Z,11.33
2019-05-07T08:15:24.718Z,6.20
2019-05-07T08:17:54.608Z,11.27
2019-05-07T08:20:24.340Z,7.73
2019-05-07T08:22:53.823Z,10.40
2019-05-07T08:25:42.691Z,8.10
2019-05-07T08:28:12.258Z,7.20
2019-05-07T08:30:43.835Z,5.90
2019-05-07T08:33:22.414Z,8.20
2019-05-07T08:36:14.303Z,8.10
2019-05-07T08:38:53.129Z,5.30
2019-05-07T08:41:23.851Z,8.80
2019-05-07T08:44:10.722Z,8.40
2019-05-07T08:46:43.742Z,5.00
2019-05-07T08:49:13.530Z,6.20
2019-05-07T08:51:43.070Z,5.70
2019-05-07T08:54:12.584Z,6.27
2019-05-07T08:56:42.623Z,8.27
2019-05-07T08:59:12.499Z,7.77
2019-05-07T09:01:43.458Z,6.83
2019-05-07T09:04:13.547Z,5.10
2019-05-07T09:06:43.224Z,7.33
2019-05-07T09:09:13.734Z,5.73
2019-05-07T09:11:43.211Z,6.03
2019-05-07T09:14:12.900Z,8.00
2019-05-07T09:16:42.869Z,4.93
2019-05-07T09:19:13.030Z,8.40
2019-05-07T09:21:43.027Z,7.67
2019-05-07T09:24:12.739Z,6.93
2019-05-07T09:26:52.383Z,6.17
2019-05-07T09:29:40.323Z,6.73
2019-05-07T09:32:24.878Z,4.60
2019-05-07T09:34:54.566Z,8.27
2019-05-07T09:37:26.706Z,7.83
2019-05-07T09:39:56.298Z,8.20
2019-05-07T09:42:25.809Z,6.63
2019-05-07T09:44:55.368Z,8.67
2019-05-07T09:47:25.180Z,5.90
2019-05-07T09:50:04.548Z,5.80
2019-05-07T09:52:26.174Z,6.57
2019-05-07T09:54:56.079Z,7.53
2019-05-07T09:57:31.211Z,6.83
2019-05-07T09:59:56.835Z,5.47
2019-05-07T10:02:26.453Z,7.77
2019-05-07T10:04:56.047Z,6.73
2019-05-07T10:07:27.025Z,5.73
2019-05-07T10:09:56.509Z,6.07
2019-05-07T10:12:34.386Z,8.13
2019-05-07T10:15:04.091Z,7.60
2019-05-07T10:17:45.342Z,5.90
2019-05-07T10:20:21.514Z,6.60
2019-05-07T10:22:46.701Z,6.23
2019-05-07T10:25:16.707Z,6.07
2019-05-07T10:27:46.642Z,7.07
2019-05-07T10:30:16.363Z,4.57
2019-05-07T10:32:46.086Z,4.27
2019-05-07T10:35:15.773Z,4.77
2019-05-07T10:37:45.398Z,6.40
2019-05-07T10:40:15.496Z,7.90
2019-05-07T10:42:44.978Z,8.80
2019-05-07T10:45:32.152Z,5.87
2019-05-07T10:48:22.049Z,4.67
2019-05-07T10:50:53.118Z,7.67
2019-05-07T10:53:23.017Z,6.07
2019-05-07T10:55:52.627Z,8.63
2019-05-07T10:58:22.138Z,5.93
2019-05-07T11:00:52.311Z,9.63
2019-05-07T11:03:22.066Z,5.73
2019-05-07T11:05:52.172Z,5.13
2019-05-07T11:08:22.190Z,6.43
2019-05-07T11:10:52.202Z,7.23
2019-05-07T11:13:21.915Z,6.93
2019-05-07T11:15:55.403Z,5.17
2019-05-07T11:18:32.295Z,5.07
2019-05-07T11:21:03.050Z,5.30
2019-05-07T11:23:32.845Z,5.27
2019-05-07T11:26:02.857Z,5.17
2019-05-07T11:28:32.596Z,8.07
2019-05-07T11:31:02.317Z,7.60
2019-05-07T11:33:32.625Z,5.20
2019-05-07T11:36:02.375Z,4.13
2019-05-07T11:38:33.430Z,6.03
2019-05-07T11:41:03.062Z,5.17
2019-05-07T11:44:06.609Z,6.67
2019-05-07T11:47:02.977Z,5.50
2019-05-07T11:49:52.458Z,8.20
2019-05-07T11:52:35.902Z,6.37
2019-05-07T11:55:06.368Z,4.23
2019-05-07T11:57:35.866Z,5.90
2019-05-07T12:00:06.335Z,6.87
2019-05-07T12:02:35.849Z,5.10
2019-05-07T12:05:05.506Z,7.00
2019-05-07T12:07:35.359Z,6.73
2019-05-07T12:10:05.480Z,6.43
2019-05-07T12:12:35.003Z,6.07
2019-05-07T12:15:06.025Z,4.60
2019-05-07T12:17:35.554Z,3.97
2019-05-07T12:20:05.251Z,4.90
2019-05-07T12:22:47.146Z,4.17
2019-05-07T12:25:17.588Z,4.40
2019-05-07T12:27:48.227Z,4.57
2019-05-07T12:30:25.382Z,3.90
2019-05-07T12:33:13.927Z,7.00
2019-05-07T12:35:43.443Z,5.20
2019-05-07T12:38:13.047Z,5.50
2019-05-07T12:40:43.009Z,5.63
2019-05-07T12:43:12.503Z,6.13
2019-05-07T12:45:42.201Z,6.57
2019-05-07T12:48:14.143Z,7.77
2019-05-07T12:50:43.311Z,5.40
2019-05-07T12:53:31.990Z,6.83
2019-05-07T12:56:02.164Z,7.50
2019-05-07T12:58:32.366Z,6.40
2019-05-07T13:01:22.118Z,6.37
2019-05-07T13:04:09.518Z,6.43
2019-05-07T13:06:46.319Z,8.30
2019-05-07T13:09:15.951Z,5.90
2019-05-07T13:11:45.462Z,6.07
2019-05-07T13:14:14.964Z,5.73
2019-05-07T13:16:44.534Z,6.00
2019-05-07T13:19:14.022Z,6.87
2019-05-07T13:21:49.766Z,5.80
2019-05-07T13:24:15.143Z,5.53
2019-05-07T13:26:44.669Z,6.60
2019-05-07T13:29:14.282Z,6.70
2019-05-07T13:31:43.871Z,9.07
2019-05-07T13:34:13.870Z,7.10
2019-05-07T13:36:47.130Z,6.73
2019-05-07T13:39:33.713Z,8.60
2019-05-07T13:42:09.040Z,6.70
2019-05-07T13:45:12.918Z,6.97
2019-05-07T13:47:43.319Z,7.17
2019-05-07T13:50:12.932Z,7.63
2019-05-07T13:52:43.386Z,7.83
2019-05-07T13:55:14.214Z,6.90
2019-05-07T13:57:43.850Z,7.03
2019-05-07T14:00:21.777Z,8.30
2019-05-07T14:02:52.070Z,7.80
2019-05-07T14:05:22.063Z,8.67
2019-05-07T14:07:52.355Z,8.57
2019-05-07T14:10:22.050Z,8.40
2019-05-07T14:12:52.217Z,7.30
2019-05-07T14:15:23.123Z,8.30
2019-05-07T14:17:55.012Z,7.70
2019-05-07T14:20:24.622Z,8.53
2019-05-07T14:22:54.278Z,9.47
2019-05-07T14:25:24.188Z,9.67
2019-05-07T14:27:54.035Z,8.93
2019-05-07T14:30:24.530Z,9.13
2019-05-07T14:33:13.179Z,10.87
2019-05-07T14:35:58.600Z,12.70
2019-05-07T14:38:33.160Z,9.97
2019-05-07T14:41:02.772Z,10.77
2019-05-07T14:43:38.442Z,10.50
2019-05-07T14:46:07.970Z,11.00
2019-05-07T14:48:37.771Z,11.73
2019-05-07T14:51:07.302Z,12.17
2019-05-07T14:53:36.952Z,12.50
2019-05-07T14:56:06.589Z,12.83
2019-05-07T14:58:36.198Z,13.00
2019-05-07T15:01:05.829Z,13.50
2019-05-07T15:03:35.343Z,14.67
2019-05-07T15:06:04.881Z,13.30
2019-05-07T15:08:34.375Z,14.23
2019-05-07T15:11:03.980Z,14.70
2019-05-07T15:13:37.021Z,14.00
2019-05-07T15:16:07.018Z,15.70
2019-05-07T15:19:04.525Z,13.23
2019-05-07T15:21:35.569Z,15.37
2019-05-07T15:24:05.170Z,14.57
2019-05-07T15:26:35.882Z,14.20
2019-05-07T15:29:09.330Z,15.30
2019-05-07T15:31:56.470Z,17.23
2019-05-07T15:34:26.235Z,13.87
2019-05-07T15:36:55.730Z,16.37
2019-05-07T15:39:25.349Z,14.73
2019-05-07T15:41:55.163Z,14.47
2019-05-07T15:44:24.678Z,13.90
2019-05-07T15:46:55.833Z,14.80
2019-05-07T15:49:25.377Z,14.13
2019-05-07T15:51:56.839Z,15.43
2019-05-07T15:54:27.055Z,14.83
2019-05-07T15:56:58.558Z,14.53
2019-05-07T15:59:28.111Z,13.63
2019-05-07T16:02:06.033Z,14.80
2019-05-07T16:04:35.577Z,15.10
2019-05-07T16:07:06.639Z,15.00
2019-05-07T16:09:54.382Z,14.03
2019-05-07T16:12:24.261Z,15.57
2019-05-07T16:14:53.759Z,14.63
2019-05-07T16:17:28.966Z,15.50
2019-05-07T16:19:58.483Z,13.93
2019-05-07T16:22:33.135Z,15.47
2019-05-07T16:25:06.834Z,12.10
2019-05-07T16:27:36.094Z,12.63
2019-05-07T16:30:06.106Z,12.40
2019-05-07T16:32:35.620Z,12.83
2019-05-07T16:35:05.642Z,13.40
2019-05-07T16:37:35.446Z,13.20
2019-05-07T16:40:05.675Z,12.77
2019-05-07T16:42:37.966Z,13.00
2019-05-07T16:45:07.494Z,15.17
2019-05-07T16:47:37.104Z,16.60
2019-05-07T16:50:06.830Z,15.40
2019-05-07T16:52:36.329Z,15.80
2019-05-07T16:55:06.022Z,16.10
2019-05-07T16:57:46.930Z,15.30
2019-05-07T17:00:26.839Z,16.00
2019-05-07T17:02:57.917Z,15.87
2019-05-07T17:05:27.437Z,17.60
2019-05-07T17:08:25.110Z,17.37
2019-05-07T17:10:55.447Z,16.00
2019-05-07T17:13:25.634Z,15.77
2019-05-07T17:15:56.926Z,16.43
2019-05-07T17:18:27.863Z,15.83
2019-05-07T17:20:58.678Z,14.87
2019-05-07T17:23:42.875Z,13.97
2019-05-07T17:25:59.748Z,15.37
2019-05-07T17:28:29.241Z,16.20
2019-05-07T17:30:58.762Z,16.50
2019-05-07T17:33:28.591Z,16.57
2019-05-07T17:35:58.466Z,16.93
2019-05-07T17:38:27.958Z,17.03
2019-05-07T17:41:09.927Z,16.83
2019-05-07T17:43:28.958Z,17.70
2019-05-07T17:45:58.474Z,16.90
2019-05-07T17:48:27.994Z,19.30
2019-05-07T17:51:26.015Z,17.87
2019-05-07T17:54:00.059Z,18.03
2019-05-07T17:56:28.038Z,18.43
2019-05-07T17:58:57.542Z,19.23
2019-05-07T18:01:55.025Z,18.67
2019-05-07T18:04:24.613Z,18.37
2019-05-07T18:06:54.249Z,17.40
2019-05-07T18:09:24.078Z,18.10
2019-05-07T18:11:53.578Z,19.67
2019-05-07T18:14:23.099Z,22.40
2019-05-07T18:17:15.078Z,19.70
2019-05-07T18:19:46.433Z,21.40
2019-05-07T18:22:16.017Z,20.10
2019-05-07T18:24:45.536Z,23.47
2019-05-07T18:27:25.309Z,21.30
2019-05-07T18:29:55.270Z,20.87
2019-05-07T18:32:32.420Z,21.50
2019-05-07T18:35:02.435Z,21.40
2019-05-07T18:37:32.621Z,22.70
2019-05-07T18:40:02.504Z,21.10
2019-05-07T18:42:32.797Z,21.67
2019-05-07T18:45:02.282Z,22.37
2019-05-07T18:47:33.116Z,21.87
2019-05-07T18:50:02.996Z,22.30
2019-05-07T18:52:32.651Z,22.67
2019-05-07T18:55:02.740Z,22.13
2019-05-07T18:57:32.929Z,23.60
2019-05-07T19:00:05.165Z,23.13
2019-05-07T19:02:33.882Z,23.77
2019-05-07T19:05:03.602Z,23.97
2019-05-07T19:07:33.394Z,21.77
2019-05-07T19:10:03.195Z,24.17
2019-05-07T19:12:34.604Z,24.77
2019-05-07T19:15:04.353Z,22.37
2019-05-07T19:17:34.021Z,24.13
2019-05-07T19:20:03.547Z,23.23
2019-05-07T19:22:33.415Z,24.93
2019-05-07T19:25:03.178Z,23.30
2019-05-07T19:27:32.860Z,24.97
2019-05-07T19:30:02.487Z,24.23
2019-05-07T19:32:34.661Z,24.30
2019-05-07T19:35:05.206Z,25.03
2019-05-07T19:37:38.922Z,25.17
2019-05-07T19:40:08.815Z,25.87
2019-05-07T19:42:42.855Z,25.63
2019-05-07T19:45:20.121Z,26.23
2019-05-07T19:47:49.441Z,25.97
2019-05-07T19:50:24.576Z,26.63
2019-05-07T19:52:55.519Z,24.60
2019-05-07T19:55:25.161Z,26.47
2019-05-07T19:58:01.983Z,28.40
2019-05-07T20:00:32.695Z,27.40
2019-05-07T20:03:03.354Z,27.03
2019-05-07T20:05:33.027Z,26.30
2019-05-07T20:08:04.621Z,28.50
2019-05-07T20:10:45.950Z,28.30
2019-05-07T20:13:15.459Z,28.70
2019-05-07T20:15:48.163Z,28.37
2019-05-07T20:18:17.711Z,30.50
2019-05-07T20:20:47.256Z,30.47
2019-05-07T20:23:17.139Z,30.43
2019-05-07T20:25:47.038Z,31.00
2019-05-07T20:28:16.926Z,29.30
2019-05-07T20:30:46.545Z,31.87
2019-05-07T20:33:16.035Z,32.53
2019-05-07T20:35:45.527Z,32.80
2019-05-07T20:38:15.043Z,34.83
2019-05-07T20:40:44.894Z,32.20
2019-05-07T20:43:14.422Z,35.13
2019-05-07T20:45:44.314Z,33.87
2019-05-07T20:48:13.861Z,34.47
2019-05-07T20:50:44.675Z,32.97
2019-05-07T20:53:14.178Z,32.43
2019-05-07T20:55:55.766Z,36.27
2019-05-07T20:58:25.307Z,33.87
2019-05-07T21:00:54.797Z,33.50
2019-05-07T21:03:24.286Z,31.53
2019-05-07T21:05:53.804Z,32.73
2019-05-07T21:08:23.392Z,32.93
2019-05-07T21:10:53.727Z,31.70
2019-05-07T21:13:30.986Z,34.63
2019-05-07T21:15:55.005Z,33.30
2019-05-07T21:18:24.716Z,31.87
2019-05-07T21:20:54.595Z,34.40
2019-05-07T21:23:24.074Z,34.07
2019-05-07T21:25:53.594Z,34.10
2019-05-07T21:28:23.212Z,35.67
2019-05-07T21:30:52.715Z,33.77
2019-05-07T21:33:23.015Z,35.00
2019-05-07T21:35:53.020Z,34.57
2019-05-07T21:38:22.651Z,39.93
2019-05-07T21:40:52.182Z,39.43
2019-05-07T21:43:22.330Z,39.43
2019-05-07T21:45:52.955Z,36.40
2019-05-07T21:48:22.761Z,38.67
2019-05-07T21:50:52.627Z,39.30
2019-05-07T21:53:32.385Z,36.73
2019-05-07T21:56:19.774Z,38.73
2019-05-07T21:58:54.156Z,38.40
2019-05-07T22:01:28.939Z,38.67
2019-05-07T22:03:59.198Z,40.60
2019-05-07T22:06:28.677Z,41.73
2019-05-07T22:08:58.190Z,38.53
2019-05-07T22:11:27.966Z,42.50
2019-05-07T22:13:57.494Z,41.03
2019-05-07T22:16:27.122Z,41.30
2019-05-07T22:18:56.631Z,41.63
2019-05-07T22:21:26.247Z,40.50
2019-05-07T22:23:55.845Z,45.70
2019-05-07T22:26:26.590Z,42.73
2019-05-07T22:28:56.243Z,42.13
2019-05-07T22:31:35.177Z,43.90
2019-05-07T22:34:23.602Z,49.53
2019-05-07T22:36:55.016Z,44.53
2019-05-07T22:39:24.366Z,46.07
2019-05-07T22:41:53.863Z,45.70
2019-05-07T22:44:26.057Z,51.33
2019-05-07T22:46:55.130Z,46.80
2019-05-07T22:49:24.623Z,46.70
2019-05-07T22:51:54.948Z,51.13
2019-05-07T22:54:24.551Z,50.00
2019-05-07T22:57:03.081Z,47.17
2019-05-07T22:59:32.889Z,45.00
2019-05-07T23:02:03.053Z,48.20
2019-05-07T23:04:32.837Z,51.67
2019-05-07T23:07:02.502Z,48.57
2019-05-07T23:09:32.342Z,48.93
2019-05-07T23:12:02.320Z,52.47
2019-05-07T23:14:32.996Z,49.10
2019-05-07T23:17:02.625Z,48.67
2019-05-07T23:19:32.827Z,54.53
2019-05-07T23:22:02.890Z,51.33
2019-05-07T23:24:32.587Z,53.27
2019-05-07T23:27:02.507Z,47.90
2019-05-07T23:29:33.023Z,53.83
2019-05-07T23:32:03.016Z,54.30
2019-05-07T23:34:32.648Z,54.30
2019-05-07T23:37:02.601Z,55.50
2019-05-07T23:39:34.096Z,53.23
2019-05-07T23:42:10.086Z,51.47
2019-05-07T23:44:41.433Z,59.07
2019-05-07T23:47:12.176Z,54.27
2019-05-07T23:49:42.999Z,55.93
2019-05-07T23:52:12.998Z,54.87
2019-05-07T23:54:43.022Z,52.03
2019-05-07T23:57:15.270Z,50.60
2019-05-07T23:59:43.771Z,49.60
